createdAt,value
2022-08-09T00:01:42.821Z,100922.69
2022-08-09T00:04:35.343Z,100927.47
2022-08-09T00:07:07.625Z,100926.06
2022-08-09T00:09:39.630Z,100927.19
2022-08-09T00:12:22.368Z,100941.72
2022-08-09T00:14:56.605Z,100929.81
2022-08-09T00:18:07.531Z,100931.53
2022-08-09T00:20:13.766Z,100933.47
2022-08-09T00:22:43.126Z,100943.44
2022-08-09T00:25:23.191Z,100932.75
2022-08-09T00:28:01.356Z,100928.31
2022-08-09T00:30:33.861Z,100936.53
2022-08-09T00:33:01.946Z,100943.38
2022-08-09T00:35:43.383Z,100928.53
2022-08-09T00:38:13.830Z,100925.16
2022-08-09T00:40:53.308Z,100928.41
2022-08-09T00:44:11.607Z,100936.53
2022-08-09T00:46:11.003Z,100926.38
2022-08-09T00:48:49.392Z,100939.81
2022-08-09T00:51:19.385Z,100950.63
2022-08-09T00:53:51.849Z,100954.31
2022-08-09T00:56:22.270Z,100951.94
2022-08-09T00:58:51.613Z,100946.19
2022-08-09T01:01:32.322Z,100948.25
2022-08-09T01:04:20.929Z,100951.50
2022-08-09T01:07:37.780Z,100946.53
2022-08-09T01:11:03.857Z,100943.69
2022-08-09T01:13:58.817Z,100948.91
2022-08-09T01:16:37.011Z,100932.25
2022-08-09T01:20:02.998Z,100951.41
2022-08-09T01:22:48.214Z,100948.03
2022-08-09T01:25:37.481Z,100951.47
2022-08-09T01:28:11.472Z,100945.97
2022-08-09T01:30:52.339Z,100945.00
2022-08-09T01:33:35.197Z,100935.25
2022-08-09T01:36:16.768Z,100955.69
2022-08-09T01:38:49.191Z,100940.00
2022-08-09T01:41:28.277Z,100940.56
2022-08-09T01:44:01.946Z,100941.53
2022-08-09T01:46:35.753Z,100950.81
2022-08-09T01:49:48.757Z,100947.25
2022-08-09T01:52:24.239Z,100957.97
2022-08-09T01:54:57.914Z,100960.47
2022-08-09T01:57:39.862Z,100964.03
2022-08-09T02:00:34.244Z,100962.31
2022-08-09T02:03:05.560Z,100969.88
2022-08-09T02:05:53.631Z,100980.47
2022-08-09T02:08:39.062Z,100978.00
2022-08-09T02:11:20.260Z,100980.25
2022-08-09T02:13:55.397Z,100971.91
2022-08-09T02:17:00.157Z,100989.53
2022-08-09T02:19:38.549Z,100980.25
2022-08-09T02:22:45.678Z,100987.69
2022-08-09T02:25:31.269Z,100991.75
2022-08-09T02:28:19.852Z,100975.28
2022-08-09T02:31:06.381Z,100982.47
2022-08-09T02:34:07.393Z,100980.91
2022-08-09T02:36:39.584Z,100982.06
2022-08-09T02:39:19.907Z,100984.09
2022-08-09T02:42:08.881Z,100975.84
2022-08-09T02:44:42.895Z,100983.84
2022-08-09T02:47:16.664Z,100985.91
2022-08-09T02:50:05.940Z,100982.72
2022-08-09T02:52:49.684Z,100992.00
2022-08-09T02:55:39.398Z,100990.97
2022-08-09T02:58:35.680Z,100979.78
2022-08-09T03:01:10.851Z,100984.34
2022-08-09T03:04:16.627Z,100981.78
2022-08-09T03:06:31.043Z,100990.94
2022-08-09T03:09:03.184Z,100991.13
2022-08-09T03:12:05.311Z,100979.84
2022-08-09T03:14:21.807Z,100992.75
2022-08-09T03:16:58.294Z,100990.34
2022-08-09T03:19:58.276Z,100991.50
2022-08-09T03:22:29.940Z,100994.59
2022-08-09T03:25:06.669Z,100988.22
2022-08-09T03:27:52.068Z,100988.22
2022-08-09T03:30:29.630Z,100997.38
2022-08-09T03:33:16.806Z,100990.25
2022-08-09T03:36:15.858Z,100992.25
2022-08-09T03:38:44.744Z,100987.25
2022-08-09T03:41:16.681Z,101001.59
2022-08-09T03:44:03.169Z,101000.94
2022-08-09T03:46:37.015Z,100997.94
2022-08-09T03:49:07.937Z,101010.25
2022-08-09T03:51:58.588Z,101002.28
2022-08-09T03:54:38.519Z,101010.75
2022-08-09T03:57:12.158Z,101008.31
2022-08-09T03:59:53.733Z,101010.53
2022-08-09T04:02:28.361Z,101001.66
2022-08-09T04:05:06.512Z,101014.41
2022-08-09T04:07:52.906Z,100996.28
2022-08-09T04:10:29.658Z,101010.53
2022-08-09T04:13:04.349Z,101021.16
2022-08-09T04:16:17.097Z,101020.38
2022-08-09T04:18:22.343Z,101033.75
2022-08-09T04:20:54.021Z,101035.59
2022-08-09T04:23:26.328Z,101036.34
2022-08-09T04:25:56.532Z,101038.19
2022-08-09T04:28:34.460Z,101031.94
2022-08-09T04:31:09.751Z,101043.56
2022-08-09T04:33:51.870Z,101045.41
2022-08-09T04:36:24.456Z,101043.69
2022-08-09T04:38:54.721Z,101045.69
2022-08-09T04:41:32.318Z,101039.69
2022-08-09T04:44:11.041Z,101055.75
2022-08-09T04:46:59.517Z,101056.81
2022-08-09T04:49:52.836Z,101065.44
2022-08-09T04:52:26.538Z,101071.53
2022-08-09T04:55:04.324Z,101066.22
2022-08-09T04:57:53.911Z,101067.19
2022-08-09T05:00:31.669Z,101075.09
2022-08-09T05:03:12.770Z,101067.00
2022-08-09T05:05:52.128Z,101073.97
2022-08-09T05:08:35.088Z,101076.56
2022-08-09T05:11:06.926Z,101081.84
2022-08-09T05:13:38.896Z,101082.66
2022-08-09T05:16:08.712Z,101086.91
2022-08-09T05:18:57.946Z,101080.63
2022-08-09T05:21:30.504Z,101088.53
2022-08-09T05:24:16.058Z,101095.59
2022-08-09T05:26:47.655Z,101096.19
2022-08-09T05:29:35.614Z,101086.22
2022-08-09T05:32:05.904Z,101093.94
2022-08-09T05:34:36.896Z,101092.91
2022-08-09T05:37:11.716Z,101099.75
2022-08-09T05:39:42.790Z,101103.03
2022-08-09T05:42:27.886Z,101099.88
2022-08-09T05:44:57.045Z,101098.72
2022-08-09T05:47:30.340Z,101084.19
2022-08-09T05:50:25.630Z,101100.41
2022-08-09T05:52:53.730Z,101108.31
2022-08-09T05:55:24.208Z,101100.63
2022-08-09T05:57:56.516Z,101110.75
2022-08-09T06:00:29.817Z,101108.22
2022-08-09T06:03:01.860Z,101103.19
2022-08-09T06:05:57.168Z,101104.53
2022-08-09T06:08:24.512Z,101115.81
2022-08-09T06:10:58.321Z,101119.31
2022-08-09T06:13:28.501Z,101118.97
2022-08-09T06:16:05.395Z,101113.09
2022-08-09T06:18:36.627Z,101123.44
2022-08-09T06:21:06.747Z,101122.06
2022-08-09T06:23:57.963Z,101116.91
2022-08-09T06:26:28.664Z,101115.25
2022-08-09T06:29:00.166Z,101126.25
2022-08-09T06:31:39.975Z,101128.13
2022-08-09T06:34:26.249Z,101131.47
2022-08-09T06:37:00.037Z,101130.09
2022-08-09T06:39:49.281Z,101133.19
2022-08-09T06:42:24.505Z,101128.34
2022-08-09T06:44:54.701Z,101113.75
2022-08-09T06:47:24.040Z,101130.88
2022-08-09T06:50:13.862Z,101131.41
2022-08-09T06:52:48.795Z,101138.16
2022-08-09T06:55:22.315Z,101128.16
2022-08-09T06:58:03.451Z,101129.63
2022-08-09T07:00:50.845Z,101134.91
2022-08-09T07:03:27.873Z,101125.00
2022-08-09T07:06:04.478Z,101140.34
2022-08-09T07:08:39.641Z,101115.19
2022-08-09T07:11:08.579Z,101135.75
2022-08-09T07:13:44.957Z,101128.47
2022-08-09T07:16:42.790Z,101144.59
2022-08-09T07:19:22.968Z,101138.06
2022-08-09T07:21:57.653Z,101151.53
2022-08-09T07:24:32.446Z,101135.63
2022-08-09T07:27:26.927Z,101140.44
2022-08-09T07:30:01.476Z,101152.22
2022-08-09T07:32:32.334Z,101142.34
2022-08-09T07:35:08.225Z,101138.28
2022-08-09T07:37:45.669Z,101132.38
2022-08-09T07:40:20.234Z,101156.59
2022-08-09T07:42:57.768Z,101142.97
2022-08-09T07:45:38.073Z,101142.38
2022-08-09T07:48:25.544Z,101141.72
2022-08-09T07:51:02.989Z,101154.47
2022-08-09T07:54:06.552Z,101151.75
2022-08-09T07:56:27.956Z,101137.13
2022-08-09T07:58:59.807Z,101152.94
2022-08-09T08:01:33.844Z,101142.63
2022-08-09T08:04:04.991Z,101141.72
2022-08-09T08:06:55.810Z,101146.78
2022-08-09T08:09:38.703Z,101147.41
2022-08-09T08:12:27.569Z,101138.97
2022-08-09T08:15:03.135Z,101142.63
2022-08-09T08:17:51.918Z,101162.28
2022-08-09T08:20:30.373Z,101155.19
2022-08-09T08:23:16.770Z,101157.50
2022-08-09T08:26:06.518Z,101153.72
2022-08-09T08:28:39.673Z,101133.19
2022-08-09T08:31:15.022Z,101154.25
2022-08-09T08:33:52.981Z,101156.66
2022-08-09T08:36:28.761Z,101142.47
2022-08-09T08:39:00.495Z,101142.94
2022-08-09T08:41:50.506Z,101152.16
2022-08-09T08:44:22.974Z,101154.31
2022-08-09T08:47:12.060Z,101145.31
2022-08-09T08:49:48.118Z,101138.75
2022-08-09T08:52:58.317Z,101133.59
2022-08-09T08:55:23.246Z,101146.25
2022-08-09T08:57:58.177Z,101156.22
2022-08-09T09:00:34.647Z,101152.06
2022-08-09T09:03:11.294Z,101147.78
2022-08-09T09:06:03.252Z,101154.28
2022-08-09T09:08:40.987Z,101140.75
2022-08-09T09:11:13.920Z,101144.50
2022-08-09T09:13:57.233Z,101141.06
2022-08-09T09:16:35.963Z,101134.47
2022-08-09T09:22:26.653Z,101135.91
2022-08-09T09:26:01.353Z,101141.81
2022-08-09T09:28:03.826Z,101128.13
2022-08-09T09:30:40.722Z,101127.53
2022-08-09T09:33:13.814Z,101128.09
2022-08-09T09:36:04.130Z,101119.47
2022-08-09T09:38:58.245Z,101132.56
2022-08-09T09:41:33.017Z,101130.09
2022-08-09T09:44:12.326Z,101122.75
2022-08-09T09:46:51.473Z,101123.97
2022-08-09T09:49:31.935Z,101119.09
2022-08-09T09:52:33.726Z,101124.50
2022-08-09T09:55:24.047Z,101122.75
2022-08-09T09:58:15.874Z,101119.25
2022-08-09T10:01:00.191Z,101108.44
2022-08-09T10:03:57.992Z,101107.69
2022-08-09T10:06:42.747Z,101097.59
2022-08-09T10:09:22.682Z,101116.25
2022-08-09T10:12:14.211Z,101092.75
2022-08-09T10:14:51.769Z,101096.06
2022-08-09T10:17:39.836Z,101096.38
2022-08-09T10:20:27.659Z,101097.03
2022-08-09T10:23:21.185Z,101091.56
2022-08-09T10:26:06.123Z,101096.25
2022-08-09T10:28:43.319Z,101094.31
2022-08-09T10:34:33.267Z,101076.19
2022-08-09T10:36:58.099Z,101088.25
2022-08-09T10:39:28.706Z,101090.06
2022-08-09T10:41:57.215Z,101093.47
2022-08-09T10:44:30.446Z,101086.50
2022-08-09T10:48:20.499Z,101082.41
2022-08-09T10:51:03.846Z,101082.28
2022-08-09T10:54:05.996Z,101060.81
2022-08-09T10:56:42.402Z,101079.06
2022-08-09T10:59:31.278Z,101076.75
2022-08-09T11:03:11.074Z,101078.47
2022-08-09T11:05:30.040Z,101087.25
2022-08-09T11:08:46.965Z,101089.50
2022-08-09T11:11:20.230Z,101068.44
2022-08-09T11:14:32.844Z,101084.38
2022-08-09T11:17:02.557Z,101067.41
2022-08-09T11:20:11.425Z,101071.59
2022-08-09T11:22:46.110Z,101058.56
2022-08-09T11:25:47.345Z,101063.38
2022-08-09T11:28:54.040Z,101057.28
2022-08-09T11:31:52.722Z,101056.25
2022-08-09T11:34:52.526Z,101060.06
2022-08-09T11:37:40.635Z,101066.41
2022-08-09T11:40:13.958Z,101064.88
2022-08-09T11:42:52.706Z,101067.97
2022-08-09T11:45:43.094Z,101062.16
2022-08-09T11:48:30.192Z,101062.00
2022-08-09T11:52:48.449Z,101055.50
2022-08-09T11:54:27.576Z,101050.38
2022-08-09T11:58:00.631Z,101050.38
2022-08-09T12:00:42.486Z,101048.13
2022-08-09T12:03:54.896Z,101026.88
2022-08-09T12:06:31.976Z,101038.72
2022-08-09T12:09:19.294Z,101025.84
2022-08-09T12:12:12.347Z,101027.22
2022-08-09T12:15:08.398Z,101031.16
2022-08-09T12:17:44.494Z,101026.88
2022-08-09T12:20:22.185Z,101036.34
2022-08-09T12:22:57.011Z,101034.16
2022-08-09T12:25:36.582Z,101040.84
2022-08-09T12:29:09.978Z,101031.25
2022-08-09T12:32:02.024Z,101032.09
2022-08-09T12:34:38.474Z,101037.94
2022-08-09T12:37:23.471Z,101006.88
2022-08-09T12:40:11.806Z,101007.38
2022-08-09T12:42:45.231Z,101007.72
2022-08-09T12:45:32.280Z,101013.25
2022-08-09T12:48:20.488Z,101002.06
2022-08-09T12:51:00.033Z,101012.53
2022-08-09T12:53:40.746Z,101016.66
2022-08-09T12:56:43.061Z,101004.66
2022-08-09T12:59:23.062Z,101004.13
2022-08-09T13:02:00.150Z,101005.50
2022-08-09T13:04:38.296Z,100985.59
2022-08-09T13:07:19.566Z,100987.50
2022-08-09T13:10:04.865Z,100990.22
2022-08-09T13:12:40.033Z,100987.66
2022-08-09T13:15:25.124Z,100990.22
2022-08-09T13:18:05.355Z,100995.22
2022-08-09T13:20:37.911Z,100990.94
2022-08-09T13:24:42.089Z,100968.78
2022-08-09T13:26:49.780Z,100981.31
2022-08-09T13:29:42.052Z,100973.59
2022-08-09T13:32:25.392Z,100974.44
2022-08-09T13:34:55.880Z,100979.41
2022-08-09T13:37:50.986Z,100970.25
2022-08-09T13:41:45.823Z,100963.56
2022-08-09T13:43:05.147Z,100969.06
2022-08-09T13:46:43.689Z,100965.97
2022-08-09T13:48:27.279Z,100972.81
2022-08-09T13:50:59.002Z,100957.69
2022-08-09T13:53:43.571Z,100963.50
2022-08-09T13:56:19.550Z,100965.06
2022-08-09T13:58:53.298Z,100963.00
2022-08-09T14:02:00.561Z,100961.47
2022-08-09T14:04:11.479Z,100953.69
2022-08-09T14:06:43.768Z,100984.88
2022-08-09T14:09:15.720Z,100966.59
2022-08-09T14:11:47.105Z,100965.06
2022-08-09T14:14:26.132Z,100967.97
2022-08-09T14:16:58.670Z,100960.91
2022-08-09T14:19:26.891Z,100973.31
2022-08-09T14:22:01.399Z,100956.66
2022-08-09T14:24:32.637Z,100962.09
2022-08-09T14:27:03.239Z,100951.09
2022-08-09T14:30:34.700Z,100946.09
2022-08-09T14:33:12.224Z,100945.75
2022-08-09T14:35:52.327Z,100950.94
2022-08-09T14:38:21.967Z,100933.06
2022-08-09T14:41:04.539Z,100922.25
2022-08-09T14:43:47.396Z,100943.34
2022-08-09T14:47:00.985Z,100939.06
2022-08-09T14:49:05.647Z,100925.97
2022-08-09T14:51:42.368Z,100940.06
2022-08-09T14:54:11.132Z,100940.38
2022-08-09T14:56:57.227Z,100932.97
2022-08-09T14:59:30.079Z,100930.06
2022-08-09T15:02:01.573Z,100928.50
2022-08-09T15:04:30.881Z,100923.00
2022-08-09T15:07:02.478Z,100940.34
2022-08-09T15:10:07.521Z,100933.59
2022-08-09T15:12:19.272Z,100929.34
2022-08-09T15:14:49.955Z,100926.03
2022-08-09T15:17:18.795Z,100930.50
2022-08-09T15:19:54.582Z,100913.28
2022-08-09T15:22:28.462Z,100921.91
2022-08-09T15:24:58.368Z,100909.16
2022-08-09T15:27:29.394Z,100903.28
2022-08-09T15:30:59.132Z,100914.31
2022-08-09T15:33:07.348Z,100911.91
2022-08-09T15:35:40.769Z,100907.25
2022-08-09T15:38:13.419Z,100912.22
2022-08-09T15:40:44.353Z,100904.81
2022-08-09T15:43:13.201Z,100920.81
2022-08-09T15:46:07.491Z,100913.06
2022-08-09T15:48:32.937Z,100918.06
2022-08-09T15:51:02.641Z,100907.56
2022-08-09T15:54:05.507Z,100903.47
2022-08-09T15:56:38.035Z,100900.22
2022-08-09T15:59:08.963Z,100904.16
2022-08-09T16:01:42.000Z,100887.50
2022-08-09T16:04:13.546Z,100904.16
2022-08-09T16:06:44.599Z,100896.09
2022-08-09T16:09:19.345Z,100902.06
2022-08-09T16:12:01.251Z,100896.63
2022-08-09T16:14:31.651Z,100891.78
2022-08-09T16:17:01.451Z,100889.56
2022-08-09T16:19:29.891Z,100900.03
2022-08-09T16:22:05.807Z,100901.09
2022-08-09T16:24:43.828Z,100910.00
2022-08-09T16:27:26.812Z,100901.28
2022-08-09T16:30:01.174Z,100908.28
2022-08-09T16:32:56.204Z,100901.94
2022-08-09T16:35:55.906Z,100904.88
2022-08-09T16:38:19.277Z,100885.34
2022-08-09T16:40:55.556Z,100894.59
2022-08-09T16:43:26.643Z,100892.22
2022-08-09T16:45:59.776Z,100889.44
2022-08-09T16:48:42.731Z,100888.94
2022-08-09T16:51:22.135Z,100904.06
2022-08-09T16:54:18.043Z,100886.75
2022-08-09T16:56:42.698Z,100896.03
2022-08-09T16:59:20.259Z,100903.94
2022-08-09T17:01:52.869Z,100900.69
2022-08-09T17:04:21.617Z,100892.63
2022-08-09T17:08:41.721Z,100896.38
2022-08-09T17:09:47.658Z,100884.59
2022-08-09T17:12:19.565Z,100901.94
2022-08-09T17:14:49.918Z,100892.84
2022-08-09T17:17:26.874Z,100883.97
2022-08-09T17:20:28.461Z,100885.97
2022-08-09T17:22:52.072Z,100902.16
2022-08-09T17:25:21.929Z,100900.59
2022-08-09T17:27:54.693Z,100890.50
2022-08-09T17:30:31.037Z,100892.88
2022-08-09T17:33:05.469Z,100901.66
2022-08-09T17:35:54.222Z,100889.34
2022-08-09T17:38:34.132Z,100910.44
2022-08-09T17:41:13.245Z,100908.06
2022-08-09T17:43:46.918Z,100902.78
2022-08-09T17:46:19.767Z,100898.66
2022-08-09T17:49:02.599Z,100920.47
2022-08-09T17:51:33.197Z,100908.81
2022-08-09T17:54:02.699Z,100911.56
2022-08-09T17:56:36.064Z,100904.88
2022-08-09T17:59:09.348Z,100915.00
2022-08-09T18:02:06.824Z,100916.56
2022-08-09T18:04:30.538Z,100909.53
2022-08-09T18:07:07.476Z,100905.06
2022-08-09T18:09:41.842Z,100921.56
2022-08-09T18:12:17.541Z,100916.06
2022-08-09T18:14:54.593Z,100923.09
2022-08-09T18:18:01.915Z,100913.16
2022-08-09T18:20:56.439Z,100922.78
2022-08-09T18:23:07.914Z,100916.25
2022-08-09T18:25:58.737Z,100906.66
2022-08-09T18:30:41.257Z,100926.03
2022-08-09T18:31:24.765Z,100927.22
2022-08-09T18:33:53.953Z,100918.63
2022-08-09T18:36:25.992Z,100931.50
2022-08-09T18:39:02.712Z,100932.34
2022-08-09T18:41:34.184Z,100928.75
2022-08-09T18:44:12.524Z,100936.47
2022-08-09T18:46:47.907Z,100938.66
2022-08-09T18:49:21.618Z,100949.28
2022-08-09T18:51:55.402Z,100946.38
2022-08-09T18:54:28.681Z,100945.00
2022-08-09T18:57:05.964Z,100953.03
2022-08-09T18:59:37.616Z,100941.16
2022-08-09T19:02:19.114Z,100952.09
2022-08-09T19:05:14.533Z,100955.66
2022-08-09T19:07:37.734Z,100959.22
2022-08-09T19:10:13.995Z,100965.19
2022-08-09T19:12:45.592Z,100964.47
2022-08-09T19:15:27.936Z,100965.28
2022-08-09T19:17:58.584Z,100965.03
2022-08-09T19:20:34.457Z,100974.09
2022-08-09T19:23:09.194Z,100977.81
2022-08-09T19:26:02.327Z,100965.44
2022-08-09T19:28:38.085Z,100969.81
2022-08-09T19:31:07.755Z,100969.44
2022-08-09T19:33:36.835Z,100979.88
2022-08-09T19:36:07.201Z,100975.19
2022-08-09T19:38:42.955Z,100982.13
2022-08-09T19:41:33.430Z,100969.94
2022-08-09T19:44:04.822Z,100976.75
2022-08-09T19:46:51.059Z,100970.28
2022-08-09T19:50:10.378Z,100969.66
2022-08-09T19:52:19.073Z,100990.06
2022-08-09T19:54:48.966Z,100988.81
2022-08-09T19:57:17.419Z,100975.06
2022-08-09T19:59:59.410Z,100975.91
2022-08-09T20:04:12.611Z,100982.16
2022-08-09T20:05:46.972Z,100983.44
2022-08-09T20:08:34.993Z,100975.16
2022-08-09T20:11:05.029Z,100977.63
2022-08-09T20:13:37.098Z,100980.84
2022-08-09T20:16:36.456Z,100992.63
2022-08-09T20:19:47.440Z,100977.31
2022-08-09T20:21:59.803Z,100987.16
2022-08-09T20:24:53.738Z,100985.72
2022-08-09T20:27:22.850Z,100976.72
2022-08-09T20:29:58.196Z,100974.69
2022-08-09T20:32:40.045Z,100982.34
2022-08-09T20:35:17.690Z,100994.44
2022-08-09T20:38:20.709Z,100987.09
2022-08-09T20:40:53.621Z,100972.78
2022-08-09T20:43:46.699Z,100983.53
2022-08-09T20:46:42.971Z,100988.88
2022-08-09T20:49:16.013Z,100987.63
2022-08-09T20:51:51.008Z,100984.34
2022-08-09T20:54:24.782Z,100987.66
2022-08-09T20:57:00.607Z,100984.38
2022-08-09T21:00:19.504Z,100983.97
2022-08-09T21:02:21.529Z,100989.88
2022-08-09T21:05:52.593Z,100989.97
2022-08-09T21:08:01.645Z,100986.38
2022-08-09T21:10:32.800Z,100989.44
2022-08-09T21:13:12.376Z,100990.56
2022-08-09T21:15:52.052Z,101001.06
2022-08-09T21:18:27.417Z,101004.81
2022-08-09T21:20:57.949Z,101004.38
2022-08-09T21:23:47.457Z,100990.91
2022-08-09T21:26:21.114Z,101002.94
2022-08-09T21:28:55.629Z,100992.78
2022-08-09T21:31:48.911Z,100996.78
2022-08-09T21:34:21.126Z,101002.38
2022-08-09T21:37:02.225Z,100993.16
2022-08-09T21:39:43.936Z,100996.63
2022-08-09T21:42:28.441Z,101008.13
2022-08-09T21:45:02.234Z,100990.88
2022-08-09T21:47:51.045Z,100990.84
2022-08-09T21:50:35.854Z,101002.31
2022-08-09T21:53:15.781Z,100985.97
2022-08-09T21:56:04.973Z,100980.94
2022-08-09T21:58:34.413Z,100986.22
2022-08-09T22:01:05.002Z,100993.97
2022-08-09T22:03:58.987Z,101002.16
2022-08-09T22:06:30.771Z,100990.38
2022-08-09T22:09:06.893Z,100991.38
2022-08-09T22:12:06.173Z,100981.00
2022-08-09T22:14:38.825Z,101010.88
2022-08-09T22:17:10.653Z,100992.59
2022-08-09T22:19:58.648Z,101008.94
2022-08-09T22:22:34.231Z,100991.56
2022-08-09T22:26:08.075Z,101002.88
2022-08-09T22:28:00.490Z,100992.66
2022-08-09T22:30:36.646Z,101006.28
2022-08-09T22:33:10.203Z,101013.59
2022-08-09T22:36:00.701Z,101007.56
2022-08-09T22:38:33.775Z,100991.44
2022-08-09T22:41:13.110Z,101004.34
2022-08-09T22:44:02.090Z,101002.94
2022-08-09T22:48:10.524Z,100991.84
2022-08-09T22:49:31.841Z,101006.31
2022-08-09T22:52:07.908Z,100999.84
2022-08-09T22:54:42.861Z,101011.59
2022-08-09T22:57:19.935Z,101008.03
2022-08-09T22:59:58.941Z,101005.22
2022-08-09T23:02:30.008Z,101002.44
2022-08-09T23:05:00.693Z,101007.00
2022-08-09T23:08:27.700Z,101008.28
2022-08-09T23:10:47.915Z,101001.50
2022-08-09T23:13:16.482Z,101008.66
2022-08-09T23:16:02.690Z,101009.69
2022-08-09T23:18:41.603Z,101011.66
2022-08-09T23:21:25.066Z,101012.50
2022-08-09T23:24:05.317Z,101003.63
2022-08-09T23:26:41.073Z,101008.66
2022-08-09T23:29:15.918Z,101012.91
2022-08-09T23:31:51.316Z,101004.03
2022-08-09T23:34:25.139Z,100997.25
2022-08-09T23:36:53.548Z,101014.31
2022-08-09T23:39:44.850Z,101019.13
2022-08-09T23:42:21.013Z,101004.88
2022-08-09T23:45:00.551Z,101020.28
2022-08-09T23:47:39.200Z,101009.66
2022-08-09T23:50:20.995Z,101000.16
2022-08-09T23:53:04.104Z,101004.88
2022-08-09T23:56:05.529Z,101004.97
2022-08-09T23:58:29.572Z,100994.78
